sensor_id;sensor_type;location;lat;lon;timestamp;pressure;altitude;pressure_sealevel;temperature;humidity
7748;BME280;3918;42.564;23.164;2023-09-18T04:03:23;-11650.84;;;-142.29;100.00
7748;BME280;3918;42.564;23.164;2023-09-18T04:05:51;-11650.84;;;-142.29;100.00
7748;BME280;3918;42.564;23.164;2023-09-18T04:08:18;-11650.84;;;-142.29;100.00
7748;BME280;3918;42.564;23.164;2023-09-18T04:10:44;-11650.84;;;-142.29;100.00
7748;BME280;3918;42.564;23.164;2023-09-18T04:13:12;-11650.84;;;-142.29;100.00
7748;BME280;3918;42.564;23.164;2023-09-18T04:15:39;-11650.84;;;-142.29;100.00
7748;BME280;3918;42.564;23.164;2023-09-18T04:18:06;-11650.84;;;-142.29;100.00
7748;BME280;3918;42.564;23.164;2023-09-18T04:20:34;-11650.84;;;-142.29;100.00
7748;BME280;3918;42.564;23.164;2023-09-18T04:23:20;-11650.84;;;-142.29;100.00
7748;BME280;3918;42.564;23.164;2023-09-18T04:25:47;-11650.84;;;-142.29;100.00
7748;BME280;3918;42.564;23.164;2023-09-18T04:28:14;-11650.84;;;-142.29;100.00
7748;BME280;3918;42.564;23.164;2023-09-18T04:30:40;-11650.84;;;-142.29;100.00
7748;BME280;3918;42.564;23.164;2023-09-18T04:33:07;-11650.84;;;-142.29;100.00
7748;BME280;3918;42.564;23.164;2023-09-18T04:35:35;-11650.84;;;-142.29;100.00
7748;BME280;3918;42.564;23.164;2023-09-18T04:38:05;-11650.84;;;-142.29;100.00
7748;BME280;3918;42.564;23.164;2023-09-18T04:40:33;-11650.84;;;-142.29;100.00
7748;BME280;3918;42.564;23.164;2023-09-18T04:43:00;-11650.84;;;-142.29;100.00
7748;BME280;3918;42.564;23.164;2023-09-18T04:45:29;-11650.84;;;-142.29;100.00
7748;BME280;3918;42.564;23.164;2023-09-18T04:47:56;-11650.84;;;-142.29;100.00
7748;BME280;3918;42.564;23.164;2023-09-18T04:50:22;-11650.84;;;-142.29;100.00
7748;BME280;3918;42.564;23.164;2023-09-18T04:52:53;-11650.84;;;-142.29;100.00
7748;BME280;3918;42.564;23.164;2023-09-18T04:55:21;-11650.84;;;-142.29;100.00
7748;BME280;3918;42.564;23.164;2023-09-18T04:57:48;-11650.84;;;-142.29;100.00
7748;BME280;3918;42.564;23.164;2023-09-18T05:00:15;-11650.84;;;-142.29;100.00
7748;BME280;3918;42.564;23.164;2023-09-18T05:02:42;-11650.84;;;-142.29;100.00
7748;BME280;3918;42.564;23.164;2023-09-18T05:05:09;-11650.84;;;-142.29;100.00
7748;BME280;3918;42.564;23.164;2023-09-18T05:07:36;-11650.84;;;-142.29;100.00
7748;BME280;3918;42.564;23.164;2023-09-18T05:10:05;-11650.84;;;-142.29;100.00
7748;BME280;3918;42.564;23.164;2023-09-18T05:12:32;-11650.84;;;-142.29;100.00
7748;BME280;3918;42.564;23.164;2023-09-18T05:14:58;-11650.84;;;-142.29;100.00
7748;BME280;3918;42.564;23.164;2023-09-18T05:17:40;-11650.84;;;-142.29;100.00
7748;BME280;3918;42.564;23.164;2023-09-18T05:20:08;-11650.84;;;-142.29;100.00
7748;BME280;3918;42.564;23.164;2023-09-18T05:22:37;-11650.84;;;-142.29;100.00
7748;BME280;3918;42.564;23.164;2023-09-18T05:25:06;-11650.84;;;-142.29;100.00
7748;BME280;3918;42.564;23.164;2023-09-18T05:27:33;-11650.84;;;-142.29;100.00
7748;BME280;3918;42.564;23.164;2023-09-18T05:29:59;-11650.84;;;-142.29;100.00
7748;BME280;3918;42.564;23.164;2023-09-18T05:32:26;-11650.84;;;-142.29;100.00
7748;BME280;3918;42.564;23.164;2023-09-18T05:34:53;-11650.84;;;-142.29;100.00
7748;BME280;3918;42.564;23.164;2023-09-18T05:37:19;-11650.84;;;-142.29;100.00
7748;BME280;3918;42.564;23.164;2023-09-18T05:39:46;-11650.84;;;-142.29;100.00
7748;BME280;3918;42.564;23.164;2023-09-18T05:42:15;-11650.84;;;-142.29;100.00
7748;BME280;3918;42.564;23.164;2023-09-18T05:44:42;-11650.84;;;-142.29;100.00
7748;BME280;3918;42.564;23.164;2023-09-18T05:47:09;-11650.84;;;-142.29;100.00
7748;BME280;3918;42.564;23.164;2023-09-18T05:49:36;-11650.84;;;-142.29;100.00
7748;BME280;3918;42.564;23.164;2023-09-18T05:52:03;-11650.84;;;-142.29;100.00
7748;BME280;3918;42.564;23.164;2023-09-18T05:54:30;-11650.84;;;-142.29;100.00
7748;BME280;3918;42.564;23.164;2023-09-18T05:56:56;-11650.84;;;-142.29;100.00
7748;BME280;3918;42.564;23.164;2023-09-18T05:59:25;-11650.84;;;-142.29;100.00
7748;BME280;3918;42.564;23.164;2023-09-18T06:01:51;-11650.84;;;-142.29;100.00
7748;BME280;3918;42.564;23.164;2023-09-18T06:04:19;-11650.84;;;-142.29;100.00
7748;BME280;3918;42.564;23.164;2023-09-18T06:06:46;-11650.84;;;-142.29;100.00
7748;BME280;3918;42.564;23.164;2023-09-18T06:09:13;-11650.84;;;-142.29;100.00
7748;BME280;3918;42.564;23.164;2023-09-18T06:11:41;-11650.84;;;-142.29;100.00
7748;BME280;3918;42.564;23.164;2023-09-18T06:14:08;-11650.84;;;-142.29;100.00
7748;BME280;3918;42.564;23.164;2023-09-18T06:16:36;-11650.84;;;-142.29;100.00
7748;BME280;3918;42.564;23.164;2023-09-18T06:19:03;-11650.84;;;-142.29;100.00
7748;BME280;3918;42.564;23.164;2023-09-18T06:21:30;-11650.84;;;-142.29;100.00
7748;BME280;3918;42.564;23.164;2023-09-18T06:23:57;-11650.84;;;-142.29;100.00
7748;BME280;3918;42.564;23.164;2023-09-18T06:26:23;-11650.84;;;-142.29;100.00
7748;BME280;3918;42.564;23.164;2023-09-18T06:28:50;-11650.84;;;-142.29;100.00
7748;BME280;3918;42.564;23.164;2023-09-18T06:31:17;-11650.84;;;-142.29;100.00
7748;BME280;3918;42.564;23.164;2023-09-18T06:33:46;-11650.84;;;-142.29;100.00
7748;BME280;3918;42.564;23.164;2023-09-18T06:36:13;-11650.84;;;-142.29;100.00
7748;BME280;3918;42.564;23.164;2023-09-18T06:38:40;-11650.84;;;-142.29;100.00
7748;BME280;3918;42.564;23.164;2023-09-18T06:41:07;-11650.84;;;-142.29;100.00
7748;BME280;3918;42.564;23.164;2023-09-18T06:43:33;-11650.84;;;-142.29;100.00
7748;BME280;3918;42.564;23.164;2023-09-18T06:46:00;-11650.84;;;-142.29;100.00
7748;BME280;3918;42.564;23.164;2023-09-18T06:48:27;-11650.84;;;-142.29;100.00
7748;BME280;3918;42.564;23.164;2023-09-18T06:50:59;-11650.84;;;-142.29;100.00
7748;BME280;3918;42.564;23.164;2023-09-18T06:53:26;-11650.84;;;-142.29;100.00
7748;BME280;3918;42.564;23.164;2023-09-18T06:55:53;-11650.84;;;-142.29;100.00
7748;BME280;3918;42.564;23.164;2023-09-18T06:58:20;-11650.84;;;-142.29;100.00
7748;BME280;3918;42.564;23.164;2023-09-18T07:00:47;-11650.84;;;-142.29;100.00
7748;BME280;3918;42.564;23.164;2023-09-18T07:03:15;-11650.84;;;-142.29;100.00
7748;BME280;3918;42.564;23.164;2023-09-18T07:05:43;-11650.84;;;-142.29;100.00
7748;BME280;3918;42.564;23.164;2023-09-18T07:08:12;-11650.84;;;-142.29;100.00
7748;BME280;3918;42.564;23.164;2023-09-18T07:10:41;-11650.84;;;-142.29;100.00
7748;BME280;3918;42.564;23.164;2023-09-18T07:13:08;-11650.84;;;-142.29;100.00
7748;BME280;3918;42.564;23.164;2023-09-18T07:15:34;-11650.84;;;-142.29;100.00
7748;BME280;3918;42.564;23.164;2023-09-18T07:18:01;-11650.84;;;-142.29;100.00
7748;BME280;3918;42.564;23.164;2023-09-18T07:20:28;-11650.84;;;-142.29;100.00
7748;BME280;3918;42.564;23.164;2023-09-18T07:22:56;-11650.84;;;-142.29;100.00
7748;BME280;3918;42.564;23.164;2023-09-18T07:25:24;-11650.84;;;-142.29;100.00
7748;BME280;3918;42.564;23.164;2023-09-18T07:27:51;-11650.84;;;-142.29;100.00
7748;BME280;3918;42.564;23.164;2023-09-18T07:30:17;-11650.84;;;-142.29;100.00
7748;BME280;3918;42.564;23.164;2023-09-18T07:32:47;-11650.84;;;-142.29;100.00
7748;BME280;3918;42.564;23.164;2023-09-18T07:35:14;-11650.84;;;-142.29;100.00
7748;BME280;3918;42.564;23.164;2023-09-18T07:37:41;-11650.84;;;-142.29;100.00
7748;BME280;3918;42.564;23.164;2023-09-18T07:40:10;-11650.84;;;-142.29;100.00
7748;BME280;3918;42.564;23.164;2023-09-18T07:42:38;-11650.84;;;-142.29;100.00
7748;BME280;3918;42.564;23.164;2023-09-18T07:45:06;-11650.84;;;-142.29;100.00
7748;BME280;3918;42.564;23.164;2023-09-18T07:47:33;-11650.84;;;-142.29;100.00
7748;BME280;3918;42.564;23.164;2023-09-18T07:50:00;-11650.84;;;-142.29;100.00
7748;BME280;3918;42.564;23.164;2023-09-18T07:52:26;-11650.84;;;-142.29;100.00
7748;BME280;3918;42.564;23.164;2023-09-18T07:54:53;-11650.84;;;-142.29;100.00
7748;BME280;3918;42.564;23.164;2023-09-18T07:57:20;-11650.84;;;-142.29;100.00
7748;BME280;3918;42.564;23.164;2023-09-18T07:59:50;-11650.84;;;-142.29;100.00
7748;BME280;3918;42.564;23.164;2023-09-18T08:02:17;-11650.84;;;-142.29;100.00
7748;BME280;3918;42.564;23.164;2023-09-18T08:04:44;-11650.84;;;-142.29;100.00
7748;BME280;3918;42.564;23.164;2023-09-18T08:07:11;-11650.84;;;-142.29;100.00
7748;BME280;3918;42.564;23.164;2023-09-18T08:09:37;-11650.84;;;-142.29;100.00
7748;BME280;3918;42.564;23.164;2023-09-18T08:12:05;-11650.84;;;-142.29;100.00
7748;BME280;3918;42.564;23.164;2023-09-18T08:14:32;-11650.84;;;-142.29;100.00
7748;BME280;3918;42.564;23.164;2023-09-18T08:17:02;-11650.84;;;-142.29;100.00
7748;BME280;3918;42.564;23.164;2023-09-18T08:19:30;-11650.84;;;-142.29;100.00
7748;BME280;3918;42.564;23.164;2023-09-18T08:21:57;-11650.84;;;-142.29;97.78
7748;BME280;3918;42.564;23.164;2023-09-18T08:24:25;-11650.84;;;-142.29;87.73
7748;BME280;3918;42.564;23.164;2023-09-18T08:26:52;-11650.84;;;-142.29;82.24
7748;BME280;3918;42.564;23.164;2023-09-18T08:29:19;-11650.84;;;-142.29;76.11
7748;BME280;3918;42.564;23.164;2023-09-18T08:31:46;-11650.84;;;-142.29;76.49
7748;BME280;3918;42.564;23.164;2023-09-18T08:34:14;-11650.84;;;-142.29;76.03
7748;BME280;3918;42.564;23.164;2023-09-18T08:36:41;-11650.84;;;-142.29;76.93
7748;BME280;3918;42.564;23.164;2023-09-18T08:39:08;-11650.84;;;-142.29;76.27
7748;BME280;3918;42.564;23.164;2023-09-18T08:41:38;-11650.84;;;-142.29;74.23
7748;BME280;3918;42.564;23.164;2023-09-18T08:44:07;-11650.84;;;-142.29;75.18
7748;BME280;3918;42.564;23.164;2023-09-18T08:46:36;-11650.84;;;-142.29;74.92
7748;BME280;3918;42.564;23.164;2023-09-18T08:49:04;-11650.84;;;-142.29;77.64
7748;BME280;3918;42.564;23.164;2023-09-18T08:51:32;-11650.84;;;-142.29;77.69
7748;BME280;3918;42.564;23.164;2023-09-18T08:54:00;-11650.84;;;-142.29;78.87
7748;BME280;3918;42.564;23.164;2023-09-18T08:56:28;-11650.84;;;-142.29;78.45
7748;BME280;3918;42.564;23.164;2023-09-18T08:58:56;-11650.84;;;-142.29;80.68
7748;BME280;3918;42.564;23.164;2023-09-18T09:01:25;-11650.84;;;-142.29;89.25
7748;BME280;3918;42.564;23.164;2023-09-18T09:03:52;-11650.84;;;-142.29;92.40
7748;BME280;3918;42.564;23.164;2023-09-18T09:06:19;-11650.84;;;-142.29;90.07
7748;BME280;3918;42.564;23.164;2023-09-18T09:08:47;-11650.84;;;-142.29;92.26
7748;BME280;3918;42.564;23.164;2023-09-18T09:11:14;-11650.84;;;-142.29;87.64
7748;BME280;3918;42.564;23.164;2023-09-18T09:13:40;-11650.84;;;-142.29;89.50
7748;BME280;3918;42.564;23.164;2023-09-18T09:16:10;-11650.84;;;-142.29;87.11
7748;BME280;3918;42.564;23.164;2023-09-18T09:18:47;-11650.84;;;-142.29;88.91
7748;BME280;3918;42.564;23.164;2023-09-18T09:21:15;-11650.84;;;-142.29;89.43
7748;BME280;3918;42.564;23.164;2023-09-18T09:23:48;-11650.84;;;-142.29;86.52
7748;BME280;3918;42.564;23.164;2023-09-18T09:26:18;-11650.84;;;-142.29;86.74
7748;BME280;3918;42.564;23.164;2023-09-18T09:28:46;-11650.84;;;-142.29;89.63
7748;BME280;3918;42.564;23.164;2023-09-18T09:31:23;-11650.84;;;-142.29;85.46
7748;BME280;3918;42.564;23.164;2023-09-18T09:33:53;-11650.84;;;-142.29;87.76
7748;BME280;3918;42.564;23.164;2023-09-18T09:36:21;-11650.84;;;-142.29;89.98
7748;BME280;3918;42.564;23.164;2023-09-18T09:38:54;-11650.84;;;-142.29;90.42
7748;BME280;3918;42.564;23.164;2023-09-18T09:41:21;-11650.84;;;-142.29;86.60
7748;BME280;3918;42.564;23.164;2023-09-18T09:43:48;-11650.84;;;-142.29;86.89
7748;BME280;3918;42.564;23.164;2023-09-18T09:46:16;-11650.84;;;-142.29;87.28
7748;BME280;3918;42.564;23.164;2023-09-18T09:48:58;-11650.84;;;-142.29;88.48
7748;BME280;3918;42.564;23.164;2023-09-18T09:51:27;-11650.84;;;-142.29;84.31
7748;BME280;3918;42.564;23.164;2023-09-18T09:53:55;-11650.84;;;-142.29;83.42
7748;BME280;3918;42.564;23.164;2023-09-18T09:56:42;-11650.84;;;-142.29;85.33
7748;BME280;3918;42.564;23.164;2023-09-18T09:59:11;-11650.84;;;-142.29;85.45
7748;BME280;3918;42.564;23.164;2023-09-18T10:01:38;-11650.84;;;-142.29;85.90
7748;BME280;3918;42.564;23.164;2023-09-18T10:04:10;-11650.84;;;-142.29;86.62
7748;BME280;3918;42.564;23.164;2023-09-18T10:06:42;-11650.84;;;-142.29;81.73
7748;BME280;3918;42.564;23.164;2023-09-18T10:09:12;-11650.84;;;-142.29;81.13
7748;BME280;3918;42.564;23.164;2023-09-18T10:11:43;-11650.84;;;-142.29;80.09
7748;BME280;3918;42.564;23.164;2023-09-18T10:14:14;-11650.84;;;-142.29;82.48
7748;BME280;3918;42.564;23.164;2023-09-18T10:16:45;-11650.84;;;-142.29;83.21
7748;BME280;3918;42.564;23.164;2023-09-18T10:19:21;-11650.84;;;-142.29;82.76
7748;BME280;3918;42.564;23.164;2023-09-18T10:22:01;-11650.84;;;-142.29;81.56
7748;BME280;3918;42.564;23.164;2023-09-18T10:24:39;-11650.84;;;-142.29;77.58
7748;BME280;3918;42.564;23.164;2023-09-18T10:27:06;-11650.84;;;-142.29;76.08
7748;BME280;3918;42.564;23.164;2023-09-18T10:29:35;-11650.84;;;-142.29;76.00
7748;BME280;3918;42.564;23.164;2023-09-18T10:32:03;-11650.84;;;-142.29;78.82
7748;BME280;3918;42.564;23.164;2023-09-18T10:34:30;-11650.84;;;-142.29;80.68
7748;BME280;3918;42.564;23.164;2023-09-18T10:37:00;-11650.84;;;-142.29;82.59
7748;BME280;3918;42.564;23.164;2023-09-18T10:39:28;-11650.84;;;-142.29;85.83
7748;BME280;3918;42.564;23.164;2023-09-18T10:42:01;-11650.84;;;-142.29;85.20
7748;BME280;3918;42.564;23.164;2023-09-18T10:44:29;-11650.84;;;-142.29;82.33
7748;BME280;3918;42.564;23.164;2023-09-18T10:46:57;-11650.84;;;-142.29;81.02
7748;BME280;3918;42.564;23.164;2023-09-18T10:49:25;-11650.84;;;-142.29;78.41
7748;BME280;3918;42.564;23.164;2023-09-18T10:51:54;-11650.84;;;-142.29;80.48
7748;BME280;3918;42.564;23.164;2023-09-18T10:54:23;-11650.84;;;-142.29;77.09
7748;BME280;3918;42.564;23.164;2023-09-18T10:56:50;-11650.84;;;-142.29;76.72
7748;BME280;3918;42.564;23.164;2023-09-18T10:59:20;-11650.84;;;-142.29;77.02
7748;BME280;3918;42.564;23.164;2023-09-18T11:01:47;-11650.84;;;-142.29;75.73
7748;BME280;3918;42.564;23.164;2023-09-18T11:04:18;-11650.84;;;-142.29;74.01
7748;BME280;3918;42.564;23.164;2023-09-18T11:07:04;-11650.84;;;-142.29;75.57
7748;BME280;3918;42.564;23.164;2023-09-18T11:09:43;-11650.84;;;-142.29;79.10
7748;BME280;3918;42.564;23.164;2023-09-18T11:12:10;-11650.84;;;-142.29;75.38
7748;BME280;3918;42.564;23.164;2023-09-18T11:14:49;-11650.84;;;-142.29;75.98
7748;BME280;3918;42.564;23.164;2023-09-18T11:17:34;-11650.84;;;-142.29;78.31
7748;BME280;3918;42.564;23.164;2023-09-18T11:20:06;-11650.84;;;-142.29;79.67
7748;BME280;3918;42.564;23.164;2023-09-18T11:22:35;-11650.84;;;-142.29;77.90
7748;BME280;3918;42.564;23.164;2023-09-18T11:25:37;-11650.84;;;-142.29;77.14
7748;BME280;3918;42.564;23.164;2023-09-18T11:28:06;-11650.84;;;-142.29;77.89
7748;BME280;3918;42.564;23.164;2023-09-18T11:30:36;-11650.84;;;-142.29;78.88
7748;BME280;3918;42.564;23.164;2023-09-18T11:33:05;-11650.84;;;-142.29;78.70
7748;BME280;3918;42.564;23.164;2023-09-18T11:35:35;-11650.84;;;-142.29;80.69
7748;BME280;3918;42.564;23.164;2023-09-18T11:38:04;-11650.84;;;-142.29;78.77
7748;BME280;3918;42.564;23.164;2023-09-18T11:40:32;-11650.84;;;-142.29;77.25
7748;BME280;3918;42.564;23.164;2023-09-18T11:43:22;-11650.84;;;-142.29;72.17
7748;BME280;3918;42.564;23.164;2023-09-18T11:45:53;-11650.84;;;-142.29;73.24
7748;BME280;3918;42.564;23.164;2023-09-18T11:48:21;-11650.84;;;-142.29;69.38
7748;BME280;3918;42.564;23.164;2023-09-18T11:50:49;-11650.84;;;-142.29;70.69
7748;BME280;3918;42.564;23.164;2023-09-18T11:53:18;-11650.84;;;-142.29;72.67
7748;BME280;3918;42.564;23.164;2023-09-18T11:55:45;-11650.84;;;-142.29;71.49
7748;BME280;3918;42.564;23.164;2023-09-18T11:58:13;-11650.84;;;-142.29;71.10
7748;BME280;3918;42.564;23.164;2023-09-18T12:00:40;-11650.84;;;-142.29;71.30
7748;BME280;3918;42.564;23.164;2023-09-18T12:03:18;-11650.84;;;-142.29;69.50
7748;BME280;3918;42.564;23.164;2023-09-18T12:05:52;-11650.84;;;-142.29;70.73
7748;BME280;3918;42.564;23.164;2023-09-18T12:08:21;-11650.84;;;-142.29;71.64
7748;BME280;3918;42.564;23.164;2023-09-18T12:10:49;-11650.84;;;-142.29;69.47
7748;BME280;3918;42.564;23.164;2023-09-18T12:13:16;-11650.84;;;-142.29;68.61
7748;BME280;3918;42.564;23.164;2023-09-18T12:15:43;-11650.84;;;-142.29;66.74
7748;BME280;3918;42.564;23.164;2023-09-18T12:18:11;-11650.84;;;-142.29;67.66
7748;BME280;3918;42.564;23.164;2023-09-18T12:20:46;-11650.84;;;-142.29;65.51
7748;BME280;3918;42.564;23.164;2023-09-18T12:23:13;-11650.84;;;-142.29;65.05
7748;BME280;3918;42.564;23.164;2023-09-18T12:25:40;-11650.84;;;-142.29;66.69
7748;BME280;3918;42.564;23.164;2023-09-18T12:28:07;-11650.84;;;-142.29;68.44
7748;BME280;3918;42.564;23.164;2023-09-18T12:30:34;-11650.84;;;-142.29;65.26
7748;BME280;3918;42.564;23.164;2023-09-18T12:33:01;-11650.84;;;-142.29;63.87
7748;BME280;3918;42.564;23.164;2023-09-18T12:35:29;-11650.84;;;-142.29;65.76
7748;BME280;3918;42.564;23.164;2023-09-18T12:37:58;-11650.84;;;-142.29;64.57
7748;BME280;3918;42.564;23.164;2023-09-18T12:40:27;-11650.84;;;-142.29;65.51
7748;BME280;3918;42.564;23.164;2023-09-18T12:42:56;-11650.84;;;-142.29;64.70
7748;BME280;3918;42.564;23.164;2023-09-18T12:45:25;-11650.84;;;-142.29;67.28
7748;BME280;3918;42.564;23.164;2023-09-18T12:47:55;-11650.84;;;-142.29;67.47
7748;BME280;3918;42.564;23.164;2023-09-18T12:50:23;-11650.84;;;-142.29;67.97
7748;BME280;3918;42.564;23.164;2023-09-18T12:52:50;-11650.84;;;-142.29;67.48
7748;BME280;3918;42.564;23.164;2023-09-18T12:55:25;-11650.84;;;-142.29;66.49
7748;BME280;3918;42.564;23.164;2023-09-18T12:57:52;-11650.84;;;-142.29;66.82
7748;BME280;3918;42.564;23.164;2023-09-18T13:00:20;-11650.84;;;-142.29;67.19
7748;BME280;3918;42.564;23.164;2023-09-18T13:02:48;-11650.84;;;-142.29;64.95
7748;BME280;3918;42.564;23.164;2023-09-18T13:05:19;-11650.84;;;-142.29;66.18
7748;BME280;3918;42.564;23.164;2023-09-18T13:07:46;-11650.84;;;-142.29;65.76
7748;BME280;3918;42.564;23.164;2023-09-18T13:10:13;-11650.84;;;-142.29;66.96
7748;BME280;3918;42.564;23.164;2023-09-18T13:12:45;-11650.84;;;-142.29;66.12
7748;BME280;3918;42.564;23.164;2023-09-18T13:15:12;-11650.84;;;-142.29;65.65
7748;BME280;3918;42.564;23.164;2023-09-18T13:17:41;-11650.84;;;-142.29;65.46
7748;BME280;3918;42.564;23.164;2023-09-18T13:20:14;-11650.84;;;-142.29;67.56
7748;BME280;3918;42.564;23.164;2023-09-18T13:22:42;-11650.84;;;-142.29;66.34
7748;BME280;3918;42.564;23.164;2023-09-18T13:25:09;-11650.84;;;-142.29;65.56
7748;BME280;3918;42.564;23.164;2023-09-18T13:27:37;-11650.84;;;-142.29;66.09
7748;BME280;3918;42.564;23.164;2023-09-18T13:30:08;-11650.84;;;-142.29;66.30
7748;BME280;3918;42.564;23.164;2023-09-18T13:32:36;-11650.84;;;-142.29;68.51
7748;BME280;3918;42.564;23.164;2023-09-18T13:35:04;-11650.84;;;-142.29;67.46
7748;BME280;3918;42.564;23.164;2023-09-18T13:37:32;-11650.84;;;-142.29;66.19
7748;BME280;3918;42.564;23.164;2023-09-18T13:39:59;-11650.84;;;-142.29;67.82
7748;BME280;3918;42.564;23.164;2023-09-18T13:42:27;-11650.84;;;-142.29;69.07
7748;BME280;3918;42.564;23.164;2023-09-18T13:44:56;-11650.84;;;-142.29;69.87
7748;BME280;3918;42.564;23.164;2023-09-18T13:47:24;-11650.84;;;-142.29;67.37
7748;BME280;3918;42.564;23.164;2023-09-18T13:49:52;-11650.84;;;-142.29;66.17
7748;BME280;3918;42.564;23.164;2023-09-18T13:52:22;-11650.84;;;-142.29;64.95
7748;BME280;3918;42.564;23.164;2023-09-18T13:54:50;-11650.84;;;-142.29;62.85
7748;BME280;3918;42.564;23.164;2023-09-18T13:57:17;-11650.84;;;-142.29;62.85
7748;BME280;3918;42.564;23.164;2023-09-18T13:59:45;-11650.84;;;-142.29;65.09
7748;BME280;3918;42.564;23.164;2023-09-18T14:02:12;-11650.84;;;-142.29;64.85
7748;BME280;3918;42.564;23.164;2023-09-18T14:04:40;-11650.84;;;-142.29;65.05
7748;BME280;3918;42.564;23.164;2023-09-18T14:07:08;-11650.84;;;-142.29;65.01
7748;BME280;3918;42.564;23.164;2023-09-18T14:09:35;-11650.84;;;-142.29;64.10
7748;BME280;3918;42.564;23.164;2023-09-18T14:12:02;-11650.84;;;-142.29;63.65
7748;BME280;3918;42.564;23.164;2023-09-18T14:14:29;-11650.84;;;-142.29;65.35
7748;BME280;3918;42.564;23.164;2023-09-18T14:16:57;-11650.84;;;-142.29;67.03
7748;BME280;3918;42.564;23.164;2023-09-18T14:19:24;-11650.84;;;-142.29;63.85
7748;BME280;3918;42.564;23.164;2023-09-18T14:21:53;-11650.84;;;-142.29;65.33
7748;BME280;3918;42.564;23.164;2023-09-18T14:24:20;-11650.84;;;-142.29;66.25
7748;BME280;3918;42.564;23.164;2023-09-18T14:26:50;-11650.84;;;-142.29;65.98
7748;BME280;3918;42.564;23.164;2023-09-18T14:29:16;-11650.84;;;-142.29;65.05
7748;BME280;3918;42.564;23.164;2023-09-18T14:31:43;-11650.84;;;-142.29;64.97
7748;BME280;3918;42.564;23.164;2023-09-18T14:34:11;-11650.84;;;-142.29;65.63
7748;BME280;3918;42.564;23.164;2023-09-18T14:36:38;-11650.84;;;-142.29;66.30
7748;BME280;3918;42.564;23.164;2023-09-18T14:39:06;-11650.84;;;-142.29;67.30
7748;BME280;3918;42.564;23.164;2023-09-18T14:41:34;-11650.84;;;-142.29;67.60
7748;BME280;3918;42.564;23.164;2023-09-18T14:44:02;-11650.84;;;-142.29;68.06
7748;BME280;3918;42.564;23.164;2023-09-18T14:46:29;-11650.84;;;-142.29;67.52
7748;BME280;3918;42.564;23.164;2023-09-18T14:48:56;-11650.84;;;-142.29;68.79
7748;BME280;3918;42.564;23.164;2023-09-18T14:51:23;-11650.84;;;-142.29;69.29
7748;BME280;3918;42.564;23.164;2023-09-18T14:53:50;-11650.84;;;-142.29;69.50
7748;BME280;3918;42.564;23.164;2023-09-18T14:56:18;-11650.84;;;-142.29;69.30
7748;BME280;3918;42.564;23.164;2023-09-18T14:58:45;-11650.84;;;-142.29;70.40
7748;BME280;3918;42.564;23.164;2023-09-18T15:01:12;-11650.84;;;-142.29;69.61
7748;BME280;3918;42.564;23.164;2023-09-18T15:03:40;-11650.84;;;-142.29;69.71
7748;BME280;3918;42.564;23.164;2023-09-18T15:06:07;-11650.84;;;-142.29;69.58
7748;BME280;3918;42.564;23.164;2023-09-18T15:08:34;-11650.84;;;-142.29;69.50
7748;BME280;3918;42.564;23.164;2023-09-18T15:11:00;-11650.84;;;-142.29;69.69
7748;BME280;3918;42.564;23.164;2023-09-18T15:13:30;-11650.84;;;-142.29;68.82
7748;BME280;3918;42.564;23.164;2023-09-18T15:15:57;-11650.84;;;-142.29;69.29
7748;BME280;3918;42.564;23.164;2023-09-18T15:18:25;-11650.84;;;-142.29;69.57
7748;BME280;3918;42.564;23.164;2023-09-18T15:20:51;-11650.84;;;-142.29;69.94
7748;BME280;3918;42.564;23.164;2023-09-18T15:23:19;-11650.84;;;-142.29;71.71
7748;BME280;3918;42.564;23.164;2023-09-18T15:25:48;-11650.84;;;-142.29;70.96
7748;BME280;3918;42.564;23.164;2023-09-18T15:28:16;-11650.84;;;-142.29;71.58
7748;BME280;3918;42.564;23.164;2023-09-18T15:30:45;-11650.84;;;-142.29;71.85
7748;BME280;3918;42.564;23.164;2023-09-18T15:33:12;-11650.84;;;-142.29;72.16
7748;BME280;3918;42.564;23.164;2023-09-18T15:35:40;-11650.84;;;-142.29;72.31
7748;BME280;3918;42.564;23.164;2023-09-18T15:38:07;-11650.84;;;-142.29;73.54
7748;BME280;3918;42.564;23.164;2023-09-18T15:40:34;-11650.84;;;-142.29;73.67
7748;BME280;3918;42.564;23.164;2023-09-18T15:43:00;-11650.84;;;-142.29;74.02
7748;BME280;3918;42.564;23.164;2023-09-18T15:45:27;-11650.84;;;-142.29;75.14
7748;BME280;3918;42.564;23.164;2023-09-18T15:47:55;-11650.84;;;-142.29;75.96
7748;BME280;3918;42.564;23.164;2023-09-18T15:50:23;-11650.84;;;-142.29;76.99
7748;BME280;3918;42.564;23.164;2023-09-18T15:52:50;-11650.84;;;-142.29;77.74
7748;BME280;3918;42.564;23.164;2023-09-18T15:55:16;-11650.84;;;-142.29;77.98
7748;BME280;3918;42.564;23.164;2023-09-18T15:57:43;-11650.84;;;-142.29;78.99
7748;BME280;3918;42.564;23.164;2023-09-18T16:00:11;-11650.84;;;-142.29;79.73
7748;BME280;3918;42.564;23.164;2023-09-18T16:02:39;-11650.84;;;-142.29;80.60
7748;BME280;3918;42.564;23.164;2023-09-18T16:05:08;-11650.84;;;-142.29;81.13
7748;BME280;3918;42.564;23.164;2023-09-18T16:07:36;-11650.84;;;-142.29;81.42
7748;BME280;3918;42.564;23.164;2023-09-18T16:10:05;-11650.84;;;-142.29;81.98
7748;BME280;3918;42.564;23.164;2023-09-18T16:12:33;-11650.84;;;-142.29;82.85
7748;BME280;3918;42.564;23.164;2023-09-18T16:15:00;-11650.84;;;-142.29;85.27
7748;BME280;3918;42.564;23.164;2023-09-18T16:17:28;-11650.84;;;-142.29;87.16
7748;BME280;3918;42.564;23.164;2023-09-18T16:19:54;-11650.84;;;-142.29;87.96
7748;BME280;3918;42.564;23.164;2023-09-18T16:22:24;-11650.84;;;-142.29;88.93
7748;BME280;3918;42.564;23.164;2023-09-18T16:24:51;-11650.84;;;-142.29;89.84
7748;BME280;3918;42.564;23.164;2023-09-18T16:27:18;-11650.84;;;-142.29;90.88
7748;BME280;3918;42.564;23.164;2023-09-18T16:29:45;-11650.84;;;-142.29;93.05
7748;BME280;3918;42.564;23.164;2023-09-18T16:32:11;-11650.84;;;-142.29;94.70
7748;BME280;3918;42.564;23.164;2023-09-18T16:34:38;-11650.84;;;-142.29;96.30
7748;BME280;3918;42.564;23.164;2023-09-18T16:37:05;-11650.84;;;-142.29;98.90
7748;BME280;3918;42.564;23.164;2023-09-18T16:39:33;-11650.84;;;-142.29;100.00
7748;BME280;3918;42.564;23.164;2023-09-18T16:42:00;-11650.84;;;-142.29;100.00
7748;BME280;3918;42.564;23.164;2023-09-18T16:44:27;-11650.84;;;-142.29;100.00